sensor_id;sensor_type;location;lat;lon;timestamp;P1;durP1;ratioP1;P2;durP2;ratioP2
1799;SDS011;919;48.274;12.292;2024-01-30T00:00:52;13.67;;;7.87;;
1799;SDS011;919;48.274;12.292;2024-01-30T00:03:18;9.90;;;7.90;;
1799;SDS011;919;48.274;12.292;2024-01-30T00:05:45;8.60;;;6.63;;
1799;SDS011;919;48.274;12.292;2024-01-30T00:08:12;10.27;;;8.20;;
1799;SDS011;919;48.274;12.292;2024-01-30T00:10:40;9.80;;;7.10;;
1799;SDS011;919;48.274;12.292;2024-01-30T00:13:07;8.80;;;7.63;;
1799;SDS011;919;48.274;12.292;2024-01-30T00:15:34;9.50;;;7.20;;
1799;SDS011;919;48.274;12.292;2024-01-30T00:18:00;11.67;;;7.53;;
1799;SDS011;919;48.274;12.292;2024-01-30T00:20:27;12.67;;;7.47;;
1799;SDS011;919;48.274;12.292;2024-01-30T00:22:54;12.70;;;8.20;;
1799;SDS011;919;48.274;12.292;2024-01-30T00:25:22;11.20;;;8.00;;
1799;SDS011;919;48.274;12.292;2024-01-30T00:27:50;10.30;;;7.80;;
1799;SDS011;919;48.274;12.292;2024-01-30T00:30:16;10.60;;;7.10;;
1799;SDS011;919;48.274;12.292;2024-01-30T00:32:43;12.60;;;8.83;;
1799;SDS011;919;48.274;12.292;2024-01-30T00:35:10;11.93;;;7.93;;
1799;SDS011;919;48.274;12.292;2024-01-30T00:37:37;11.27;;;8.83;;
1799;SDS011;919;48.274;12.292;2024-01-30T00:40:04;12.83;;;8.97;;
1799;SDS011;919;48.274;12.292;2024-01-30T00:42:32;9.57;;;7.23;;
1799;SDS011;919;48.274;12.292;2024-01-30T00:45:00;9.30;;;7.33;;
1799;SDS011;919;48.274;12.292;2024-01-30T00:47:27;11.23;;;7.60;;
1799;SDS011;919;48.274;12.292;2024-01-30T00:49:54;9.53;;;7.33;;
1799;SDS011;919;48.274;12.292;2024-01-30T00:52:21;10.80;;;8.10;;
1799;SDS011;919;48.274;12.292;2024-01-30T00:54:47;12.10;;;7.47;;
1799;SDS011;919;48.274;12.292;2024-01-30T00:57:14;10.40;;;7.27;;
1799;SDS011;919;48.274;12.292;2024-01-30T00:59:41;8.53;;;7.70;;
1799;SDS011;919;48.274;12.292;2024-01-30T01:02:09;11.30;;;8.10;;
1799;SDS011;919;48.274;12.292;2024-01-30T01:04:35;12.50;;;8.40;;
1799;SDS011;919;48.274;12.292;2024-01-30T01:07:02;8.53;;;7.17;;
1799;SDS011;919;48.274;12.292;2024-01-30T01:09:29;9.57;;;6.30;;
1799;SDS011;919;48.274;12.292;2024-01-30T01:11:56;8.87;;;6.90;;
1799;SDS011;919;48.274;12.292;2024-01-30T01:14:23;10.47;;;7.23;;
1799;SDS011;919;48.274;12.292;2024-01-30T01:16:50;11.40;;;7.17;;
1799;SDS011;919;48.274;12.292;2024-01-30T01:19:18;9.97;;;6.43;;
1799;SDS011;919;48.274;12.292;2024-01-30T01:21:45;10.33;;;8.10;;
1799;SDS011;919;48.274;12.292;2024-01-30T01:24:12;10.33;;;8.53;;
1799;SDS011;919;48.274;12.292;2024-01-30T01:26:38;14.60;;;7.23;;
1799;SDS011;919;48.274;12.292;2024-01-30T01:29:05;7.53;;;6.73;;
1799;SDS011;919;48.274;12.292;2024-01-30T01:31:35;8.87;;;6.10;;
1799;SDS011;919;48.274;12.292;2024-01-30T01:34:05;12.17;;;7.30;;
1799;SDS011;919;48.274;12.292;2024-01-30T01:36:33;9.80;;;8.03;;
1799;SDS011;919;48.274;12.292;2024-01-30T01:38:59;10.53;;;7.77;;
1799;SDS011;919;48.274;12.292;2024-01-30T01:41:29;12.77;;;8.40;;
1799;SDS011;919;48.274;12.292;2024-01-30T01:43:56;11.30;;;8.07;;
1799;SDS011;919;48.274;12.292;2024-01-30T01:46:23;10.70;;;6.73;;
1799;SDS011;919;48.274;12.292;2024-01-30T01:48:52;10.00;;;7.37;;
1799;SDS011;919;48.274;12.292;2024-01-30T01:51:19;9.07;;;7.43;;
1799;SDS011;919;48.274;12.292;2024-01-30T01:53:48;12.27;;;7.63;;
1799;SDS011;919;48.274;12.292;2024-01-30T01:56:15;12.20;;;7.27;;
1799;SDS011;919;48.274;12.292;2024-01-30T01:58:42;11.33;;;7.20;;
1799;SDS011;919;48.274;12.292;2024-01-30T02:01:12;9.13;;;7.30;;
1799;SDS011;919;48.274;12.292;2024-01-30T02:03:39;11.20;;;7.77;;
1799;SDS011;919;48.274;12.292;2024-01-30T02:06:07;11.00;;;8.20;;
1799;SDS011;919;48.274;12.292;2024-01-30T02:08:34;10.80;;;7.00;;
1799;SDS011;919;48.274;12.292;2024-01-30T02:11:04;12.90;;;7.90;;
1799;SDS011;919;48.274;12.292;2024-01-30T02:13:31;12.63;;;8.37;;
1799;SDS011;919;48.274;12.292;2024-01-30T02:15:58;10.87;;;7.67;;
1799;SDS011;919;48.274;12.292;2024-01-30T02:18:25;10.30;;;7.23;;
1799;SDS011;919;48.274;12.292;2024-01-30T02:20:52;17.83;;;7.77;;
1799;SDS011;919;48.274;12.292;2024-01-30T02:23:21;9.50;;;7.20;;
1799;SDS011;919;48.274;12.292;2024-01-30T02:25:50;10.80;;;7.10;;
1799;SDS011;919;48.274;12.292;2024-01-30T02:28:18;12.53;;;7.70;;
1799;SDS011;919;48.274;12.292;2024-01-30T02:30:45;7.53;;;6.83;;
1799;SDS011;919;48.274;12.292;2024-01-30T02:33:12;12.03;;;7.53;;
1799;SDS011;919;48.274;12.292;2024-01-30T02:35:39;9.23;;;7.80;;
1799;SDS011;919;48.274;12.292;2024-01-30T02:38:06;8.77;;;7.07;;
1799;SDS011;919;48.274;12.292;2024-01-30T02:40:34;9.10;;;8.20;;
1799;SDS011;919;48.274;12.292;2024-01-30T02:43:01;12.23;;;7.40;;
1799;SDS011;919;48.274;12.292;2024-01-30T02:45:29;11.47;;;7.73;;
1799;SDS011;919;48.274;12.292;2024-01-30T02:47:55;10.17;;;7.27;;
1799;SDS011;919;48.274;12.292;2024-01-30T02:50:22;9.37;;;7.10;;
1799;SDS011;919;48.274;12.292;2024-01-30T02:52:49;17.77;;;9.17;;
1799;SDS011;919;48.274;12.292;2024-01-30T02:55:16;9.43;;;7.03;;
1799;SDS011;919;48.274;12.292;2024-01-30T02:57:45;9.23;;;6.90;;
1799;SDS011;919;48.274;12.292;2024-01-30T03:00:12;15.93;;;8.23;;
1799;SDS011;919;48.274;12.292;2024-01-30T03:02:39;12.07;;;8.67;;
1799;SDS011;919;48.274;12.292;2024-01-30T03:05:06;11.83;;;7.27;;
1799;SDS011;919;48.274;12.292;2024-01-30T03:07:34;9.67;;;6.90;;
1799;SDS011;919;48.274;12.292;2024-01-30T03:10:00;12.20;;;8.00;;
1799;SDS011;919;48.274;12.292;2024-01-30T03:12:27;9.30;;;7.00;;
1799;SDS011;919;48.274;12.292;2024-01-30T03:14:55;8.33;;;7.27;;
1799;SDS011;919;48.274;12.292;2024-01-30T03:17:22;13.60;;;7.83;;
1799;SDS011;919;48.274;12.292;2024-01-30T03:19:50;12.40;;;7.57;;
1799;SDS011;919;48.274;12.292;2024-01-30T03:22:16;11.47;;;8.20;;
1799;SDS011;919;48.274;12.292;2024-01-30T03:24:43;11.10;;;7.67;;
1799;SDS011;919;48.274;12.292;2024-01-30T03:27:10;7.73;;;7.03;;
1799;SDS011;919;48.274;12.292;2024-01-30T03:29:37;8.20;;;5.60;;
1799;SDS011;919;48.274;12.292;2024-01-30T03:32:05;12.60;;;8.43;;
1799;SDS011;919;48.274;12.292;2024-01-30T03:34:32;10.23;;;7.10;;
1799;SDS011;919;48.274;12.292;2024-01-30T03:36:59;13.90;;;7.73;;
1799;SDS011;919;48.274;12.292;2024-01-30T03:39:26;10.33;;;7.23;;
1799;SDS011;919;48.274;12.292;2024-01-30T03:41:52;10.03;;;6.67;;
1799;SDS011;919;48.274;12.292;2024-01-30T03:44:19;10.83;;;7.40;;
1799;SDS011;919;48.274;12.292;2024-01-30T03:46:46;9.47;;;6.77;;
1799;SDS011;919;48.274;12.292;2024-01-30T03:49:14;7.80;;;7.00;;
1799;SDS011;919;48.274;12.292;2024-01-30T03:51:41;11.87;;;7.33;;
1799;SDS011;919;48.274;12.292;2024-01-30T03:54:07;11.57;;;7.30;;
1799;SDS011;919;48.274;12.292;2024-01-30T03:56:34;10.37;;;6.90;;
1799;SDS011;919;48.274;12.292;2024-01-30T03:59:01;12.47;;;8.23;;
1799;SDS011;919;48.274;12.292;2024-01-30T04:01:28;9.37;;;8.20;;
1799;SDS011;919;48.274;12.292;2024-01-30T04:03:55;10.50;;;7.43;;
1799;SDS011;919;48.274;12.292;2024-01-30T04:06:23;12.30;;;8.37;;
1799;SDS011;919;48.274;12.292;2024-01-30T04:08:50;8.80;;;6.97;;
1799;SDS011;919;48.274;12.292;2024-01-30T04:11:18;16.60;;;9.00;;
1799;SDS011;919;48.274;12.292;2024-01-30T04:13:45;9.67;;;7.30;;
1799;SDS011;919;48.274;12.292;2024-01-30T04:16:18;12.63;;;8.13;;
1799;SDS011;919;48.274;12.292;2024-01-30T04:18:46;10.30;;;6.80;;
1799;SDS011;919;48.274;12.292;2024-01-30T04:21:13;10.97;;;7.23;;
1799;SDS011;919;48.274;12.292;2024-01-30T04:23:41;14.53;;;9.00;;
1799;SDS011;919;48.274;12.292;2024-01-30T04:26:08;10.93;;;7.77;;
1799;SDS011;919;48.274;12.292;2024-01-30T04:28:35;9.87;;;7.40;;
1799;SDS011;919;48.274;12.292;2024-01-30T04:31:01;12.87;;;8.00;;
1799;SDS011;919;48.274;12.292;2024-01-30T04:33:28;9.17;;;7.33;;
1799;SDS011;919;48.274;12.292;2024-01-30T04:35:55;10.00;;;6.77;;
1799;SDS011;919;48.274;12.292;2024-01-30T04:38:22;10.50;;;6.80;;
1799;SDS011;919;48.274;12.292;2024-01-30T04:40:50;12.20;;;7.40;;
1799;SDS011;919;48.274;12.292;2024-01-30T04:43:16;12.53;;;8.07;;
1799;SDS011;919;48.274;12.292;2024-01-30T04:45:44;9.00;;;7.60;;
1799;SDS011;919;48.274;12.292;2024-01-30T04:48:10;11.63;;;7.37;;
1799;SDS011;919;48.274;12.292;2024-01-30T04:50:37;8.53;;;7.63;;
1799;SDS011;919;48.274;12.292;2024-01-30T04:53:04;15.13;;;9.40;;
1799;SDS011;919;48.274;12.292;2024-01-30T04:55:31;9.77;;;6.97;;
1799;SDS011;919;48.274;12.292;2024-01-30T04:57:59;11.40;;;8.10;;
1799;SDS011;919;48.274;12.292;2024-01-30T05:00:25;11.00;;;8.10;;
1799;SDS011;919;48.274;12.292;2024-01-30T05:02:52;15.83;;;8.30;;
1799;SDS011;919;48.274;12.292;2024-01-30T05:05:20;11.23;;;8.07;;
1799;SDS011;919;48.274;12.292;2024-01-30T05:07:47;12.53;;;8.00;;
1799;SDS011;919;48.274;12.292;2024-01-30T05:10:15;12.30;;;8.27;;
1799;SDS011;919;48.274;12.292;2024-01-30T05:12:41;10.97;;;7.63;;
1799;SDS011;919;48.274;12.292;2024-01-30T05:15:10;10.03;;;8.00;;
1799;SDS011;919;48.274;12.292;2024-01-30T05:17:36;10.80;;;8.50;;
1799;SDS011;919;48.274;12.292;2024-01-30T05:20:03;11.10;;;8.03;;
1799;SDS011;919;48.274;12.292;2024-01-30T05:22:31;10.70;;;7.77;;
1799;SDS011;919;48.274;12.292;2024-01-30T05:24:58;13.03;;;7.67;;
1799;SDS011;919;48.274;12.292;2024-01-30T05:27:24;12.40;;;7.80;;
1799;SDS011;919;48.274;12.292;2024-01-30T05:29:51;8.97;;;6.90;;
1799;SDS011;919;48.274;12.292;2024-01-30T05:32:19;12.00;;;7.93;;
1799;SDS011;919;48.274;12.292;2024-01-30T05:34:46;10.87;;;7.30;;
1799;SDS011;919;48.274;12.292;2024-01-30T05:37:15;12.37;;;8.17;;
1799;SDS011;919;48.274;12.292;2024-01-30T05:39:42;11.07;;;7.73;;
1799;SDS011;919;48.274;12.292;2024-01-30T05:42:09;12.83;;;8.50;;
1799;SDS011;919;48.274;12.292;2024-01-30T05:44:36;11.10;;;7.20;;
1799;SDS011;919;48.274;12.292;2024-01-30T05:47:03;9.33;;;7.27;;
1799;SDS011;919;48.274;12.292;2024-01-30T05:49:31;11.80;;;8.67;;
1799;SDS011;919;48.274;12.292;2024-01-30T05:51:58;15.73;;;9.47;;
1799;SDS011;919;48.274;12.292;2024-01-30T05:54:24;9.37;;;7.77;;
1799;SDS011;919;48.274;12.292;2024-01-30T05:56:51;12.37;;;8.27;;
1799;SDS011;919;48.274;12.292;2024-01-30T05:59:18;13.17;;;8.60;;
1799;SDS011;919;48.274;12.292;2024-01-30T06:01:45;12.67;;;8.00;;
1799;SDS011;919;48.274;12.292;2024-01-30T06:04:12;8.20;;;6.70;;
1799;SDS011;919;48.274;12.292;2024-01-30T06:06:40;11.13;;;8.03;;
1799;SDS011;919;48.274;12.292;2024-01-30T06:09:07;14.17;;;9.80;;
1799;SDS011;919;48.274;12.292;2024-01-30T06:11:34;9.70;;;7.30;;
1799;SDS011;919;48.274;12.292;2024-01-30T06:14:01;11.00;;;7.20;;
1799;SDS011;919;48.274;12.292;2024-01-30T06:16:27;11.67;;;7.97;;
1799;SDS011;919;48.274;12.292;2024-01-30T06:18:55;12.10;;;7.80;;
1799;SDS011;919;48.274;12.292;2024-01-30T06:21:22;12.40;;;8.73;;
1799;SDS011;919;48.274;12.292;2024-01-30T06:23:51;10.67;;;7.63;;
1799;SDS011;919;48.274;12.292;2024-01-30T06:26:17;10.73;;;7.30;;
1799;SDS011;919;48.274;12.292;2024-01-30T06:28:44;10.93;;;9.10;;
1799;SDS011;919;48.274;12.292;2024-01-30T06:31:11;14.57;;;8.77;;
1799;SDS011;919;48.274;12.292;2024-01-30T06:33:37;13.23;;;8.40;;
1799;SDS011;919;48.274;12.292;2024-01-30T06:36:04;12.27;;;7.63;;
1799;SDS011;919;48.274;12.292;2024-01-30T06:38:31;12.60;;;8.20;;
1799;SDS011;919;48.274;12.292;2024-01-30T06:40:59;11.37;;;8.20;;
1799;SDS011;919;48.274;12.292;2024-01-30T06:43:26;11.50;;;7.63;;
1799;SDS011;919;48.274;12.292;2024-01-30T06:45:52;9.87;;;7.63;;
1799;SDS011;919;48.274;12.292;2024-01-30T06:48:19;12.40;;;8.37;;
1799;SDS011;919;48.274;12.292;2024-01-30T06:50:46;10.27;;;8.00;;
1799;SDS011;919;48.274;12.292;2024-01-30T06:53:14;11.30;;;8.00;;
1799;SDS011;919;48.274;12.292;2024-01-30T06:55:41;12.23;;;7.50;;
1799;SDS011;919;48.274;12.292;2024-01-30T06:58:09;12.43;;;7.80;;
1799;SDS011;919;48.274;12.292;2024-01-30T07:00:35;10.00;;;7.57;;
1799;SDS011;919;48.274;12.292;2024-01-30T07:03:02;12.90;;;7.73;;
1799;SDS011;919;48.274;12.292;2024-01-30T07:05:29;11.30;;;7.93;;
1799;SDS011;919;48.274;12.292;2024-01-30T07:07:56;14.13;;;8.10;;
1799;SDS011;919;48.274;12.292;2024-01-30T07:10:23;9.40;;;7.90;;
1799;SDS011;919;48.274;12.292;2024-01-30T07:12:49;11.03;;;8.20;;
1799;SDS011;919;48.274;12.292;2024-01-30T07:15:17;8.53;;;7.63;;
1799;SDS011;919;48.274;12.292;2024-01-30T07:17:45;10.83;;;7.73;;
1799;SDS011;919;48.274;12.292;2024-01-30T07:20:12;10.90;;;7.57;;
1799;SDS011;919;48.274;12.292;2024-01-30T07:22:39;9.43;;;7.60;;
1799;SDS011;919;48.274;12.292;2024-01-30T07:25:06;10.00;;;6.33;;
1799;SDS011;919;48.274;12.292;2024-01-30T07:27:34;12.13;;;7.90;;
1799;SDS011;919;48.274;12.292;2024-01-30T07:30:01;9.63;;;6.83;;
1799;SDS011;919;48.274;12.292;2024-01-30T07:32:29;7.20;;;6.50;;
1799;SDS011;919;48.274;12.292;2024-01-30T07:34:56;11.80;;;8.20;;
1799;SDS011;919;48.274;12.292;2024-01-30T07:37:23;13.60;;;7.70;;
1799;SDS011;919;48.274;12.292;2024-01-30T07:39:50;10.67;;;7.37;;
1799;SDS011;919;48.274;12.292;2024-01-30T07:42:17;10.67;;;7.63;;
1799;SDS011;919;48.274;12.292;2024-01-30T07:44:43;12.40;;;8.10;;
1799;SDS011;919;48.274;12.292;2024-01-30T07:47:10;14.63;;;8.17;;
1799;SDS011;919;48.274;12.292;2024-01-30T07:49:38;9.57;;;8.00;;
1799;SDS011;919;48.274;12.292;2024-01-30T07:52:05;13.20;;;8.70;;
1799;SDS011;919;48.274;12.292;2024-01-30T07:54:32;9.20;;;7.47;;
1799;SDS011;919;48.274;12.292;2024-01-30T07:56:59;11.20;;;7.30;;
1799;SDS011;919;48.274;12.292;2024-01-30T07:59:26;12.83;;;7.60;;
1799;SDS011;919;48.274;12.292;2024-01-30T08:01:53;13.43;;;8.37;;
1799;SDS011;919;48.274;12.292;2024-01-30T08:04:20;11.07;;;8.40;;
1799;SDS011;919;48.274;12.292;2024-01-30T08:06:48;9.27;;;7.97;;
1799;SDS011;919;48.274;12.292;2024-01-30T08:09:15;16.50;;;8.73;;
1799;SDS011;919;48.274;12.292;2024-01-30T08:11:42;10.13;;;7.60;;
1799;SDS011;919;48.274;12.292;2024-01-30T08:14:08;12.43;;;9.33;;
1799;SDS011;919;48.274;12.292;2024-01-30T08:16:35;18.60;;;10.50;;
1799;SDS011;919;48.274;12.292;2024-01-30T08:19:02;14.50;;;9.40;;
1799;SDS011;919;48.274;12.292;2024-01-30T08:21:29;13.70;;;9.70;;
1799;SDS011;919;48.274;12.292;2024-01-30T08:24:02;14.50;;;11.20;;
1799;SDS011;919;48.274;12.292;2024-01-30T08:26:29;13.60;;;9.23;;
1799;SDS011;919;48.274;12.292;2024-01-30T08:28:56;14.80;;;10.20;;
1799;SDS011;919;48.274;12.292;2024-01-30T08:31:22;14.27;;;9.80;;
1799;SDS011;919;48.274;12.292;2024-01-30T08:33:49;15.93;;;11.00;;
1799;SDS011;919;48.274;12.292;2024-01-30T08:36:16;14.90;;;10.80;;
1799;SDS011;919;48.274;12.292;2024-01-30T08:38:43;15.33;;;10.40;;
1799;SDS011;919;48.274;12.292;2024-01-30T08:41:11;14.20;;;10.37;;
1799;SDS011;919;48.274;12.292;2024-01-30T08:43:38;11.33;;;9.20;;
1799;SDS011;919;48.274;12.292;2024-01-30T08:46:05;13.73;;;10.97;;
1799;SDS011;919;48.274;12.292;2024-01-30T08:48:31;12.90;;;9.70;;
1799;SDS011;919;48.274;12.292;2024-01-30T08:50:58;14.43;;;11.10;;
1799;SDS011;919;48.274;12.292;2024-01-30T08:53:25;14.50;;;10.87;;
1799;SDS011;919;48.274;12.292;2024-01-30T08:55:51;13.80;;;11.47;;
1799;SDS011;919;48.274;12.292;2024-01-30T08:58:19;18.13;;;11.00;;
1799;SDS011;919;48.274;12.292;2024-01-30T09:00:46;16.03;;;11.37;;
1799;SDS011;919;48.274;12.292;2024-01-30T09:03:13;19.43;;;12.70;;
1799;SDS011;919;48.274;12.292;2024-01-30T09:05:40;14.40;;;11.57;;
1799;SDS011;919;48.274;12.292;2024-01-30T09:08:06;16.63;;;11.60;;
1799;SDS011;919;48.274;12.292;2024-01-30T09:10:33;19.20;;;11.80;;
1799;SDS011;919;48.274;12.292;2024-01-30T09:13:00;21.53;;;13.37;;
1799;SDS011;919;48.274;12.292;2024-01-30T09:15:28;15.90;;;11.00;;
1799;SDS011;919;48.274;12.292;2024-01-30T09:17:54;17.80;;;11.53;;
1799;SDS011;919;48.274;12.292;2024-01-30T09:20:21;17.53;;;12.80;;
1799;SDS011;919;48.274;12.292;2024-01-30T09:22:48;18.53;;;12.60;;
1799;SDS011;919;48.274;12.292;2024-01-30T09:25:15;20.57;;;12.60;;
1799;SDS011;919;48.274;12.292;2024-01-30T09:27:43;18.13;;;11.40;;
1799;SDS011;919;48.274;12.292;2024-01-30T09:30:10;18.47;;;12.20;;
1799;SDS011;919;48.274;12.292;2024-01-30T09:32:40;13.70;;;11.00;;
1799;SDS011;919;48.274;12.292;2024-01-30T09:35:08;16.00;;;12.13;;
1799;SDS011;919;48.274;12.292;2024-01-30T09:37:35;15.57;;;12.03;;
1799;SDS011;919;48.274;12.292;2024-01-30T09:40:02;15.40;;;11.70;;
1799;SDS011;919;48.274;12.292;2024-01-30T09:42:32;20.80;;;12.90;;
1799;SDS011;919;48.274;12.292;2024-01-30T09:45:01;18.03;;;12.33;;
1799;SDS011;919;48.274;12.292;2024-01-30T09:47:28;17.67;;;12.57;;
1799;SDS011;919;48.274;12.292;2024-01-30T09:49:59;16.43;;;11.73;;
1799;SDS011;919;48.274;12.292;2024-01-30T09:52:27;24.83;;;14.40;;
1799;SDS011;919;48.274;12.292;2024-01-30T09:54:54;20.20;;;13.57;;
1799;SDS011;919;48.274;12.292;2024-01-30T09:57:21;16.67;;;12.30;;
1799;SDS011;919;48.274;12.292;2024-01-30T09:59:48;17.97;;;13.63;;
1799;SDS011;919;48.274;12.292;2024-01-30T10:02:17;18.03;;;13.30;;
1799;SDS011;919;48.274;12.292;2024-01-30T10:04:45;21.83;;;14.60;;
1799;SDS011;919;48.274;12.292;2024-01-30T10:07:15;17.63;;;13.53;;
1799;SDS011;919;48.274;12.292;2024-01-30T10:09:42;18.83;;;13.47;;
1799;SDS011;919;48.274;12.292;2024-01-30T10:12:09;20.77;;;13.43;;
1799;SDS011;919;48.274;12.292;2024-01-30T10:14:37;16.50;;;13.03;;
1799;SDS011;919;48.274;12.292;2024-01-30T10:17:04;16.40;;;13.43;;
1799;SDS011;919;48.274;12.292;2024-01-30T10:19:31;18.40;;;12.90;;
1799;SDS011;919;48.274;12.292;2024-01-30T10:21:59;16.60;;;13.70;;
1799;SDS011;919;48.274;12.292;2024-01-30T10:24:27;21.30;;;13.17;;
1799;SDS011;919;48.274;12.292;2024-01-30T10:26:55;17.20;;;13.50;;
1799;SDS011;919;48.274;12.292;2024-01-30T10:29:22;16.43;;;12.67;;
1799;SDS011;919;48.274;12.292;2024-01-30T10:31:57;18.40;;;13.13;;
1799;SDS011;919;48.274;12.292;2024-01-30T10:34:24;18.27;;;14.40;;
1799;SDS011;919;48.274;12.292;2024-01-30T10:36:51;15.70;;;12.33;;
1799;SDS011;919;48.274;12.292;2024-01-30T10:39:25;21.27;;;13.90;;
1799;SDS011;919;48.274;12.292;2024-01-30T10:41:59;21.90;;;14.00;;
1799;SDS011;919;48.274;12.292;2024-01-30T10:44:30;19.23;;;14.60;;
1799;SDS011;919;48.274;12.292;2024-01-30T10:47:03;20.00;;;14.67;;
1799;SDS011;919;48.274;12.292;2024-01-30T10:49:35;17.60;;;13.20;;
1799;SDS011;919;48.274;12.292;2024-01-30T10:52:03;21.83;;;13.97;;
1799;SDS011;919;48.274;12.292;2024-01-30T10:54:32;15.00;;;13.40;;
1799;SDS011;919;48.274;12.292;2024-01-30T10:57:01;17.57;;;13.50;;
1799;SDS011;919;48.274;12.292;2024-01-30T10:59:29;16.70;;;14.43;;
1799;SDS011;919;48.274;12.292;2024-01-30T11:01:57;15.73;;;12.27;;
1799;SDS011;919;48.274;12.292;2024-01-30T11:04:24;18.17;;;14.67;;
1799;SDS011;919;48.274;12.292;2024-01-30T11:06:51;17.33;;;13.33;;
1799;SDS011;919;48.274;12.292;2024-01-30T11:09:19;21.03;;;13.83;;
1799;SDS011;919;48.274;12.292;2024-01-30T11:11:51;16.20;;;13.27;;
1799;SDS011;919;48.274;12.292;2024-01-30T11:14:23;19.30;;;13.87;;
1799;SDS011;919;48.274;12.292;2024-01-30T11:16:50;17.83;;;13.30;;
1799;SDS011;919;48.274;12.292;2024-01-30T11:19:22;15.93;;;13.70;;
1799;SDS011;919;48.274;12.292;2024-01-30T11:21:50;14.67;;;12.83;;
1799;SDS011;919;48.274;12.292;2024-01-30T11:24:19;15.50;;;12.13;;
1799;SDS011;919;48.274;12.292;2024-01-30T11:26:46;16.97;;;12.33;;
1799;SDS011;919;48.274;12.292;2024-01-30T11:29:15;13.33;;;11.50;;
1799;SDS011;919;48.274;12.292;2024-01-30T11:31:51;18.53;;;13.60;;
1799;SDS011;919;48.274;12.292;2024-01-30T11:34:18;16.90;;;13.13;;
1799;SDS011;919;48.274;12.292;2024-01-30T11:36:47;15.90;;;12.20;;
1799;SDS011;919;48.274;12.292;2024-01-30T11:39:18;17.40;;;13.30;;
1799;SDS011;919;48.274;12.292;2024-01-30T11:41:46;18.40;;;13.10;;
1799;SDS011;919;48.274;12.292;2024-01-30T11:44:17;15.13;;;12.30;;
1799;SDS011;919;48.274;12.292;2024-01-30T11:46:45;15.47;;;12.77;;
1799;SDS011;919;48.274;12.292;2024-01-30T11:49:12;24.43;;;13.03;;
1799;SDS011;919;48.274;12.292;2024-01-30T11:51:39;15.00;;;11.43;;
1799;SDS011;919;48.274;12.292;2024-01-30T11:54:07;15.87;;;12.00;;
1799;SDS011;919;48.274;12.292;2024-01-30T11:56:34;12.57;;;11.27;;
1799;SDS011;919;48.274;12.292;2024-01-30T11:59:00;14.30;;;11.57;;
1799;SDS011;919;48.274;12.292;2024-01-30T12:01:28;15.30;;;11.87;;
1799;SDS011;919;48.274;12.292;2024-01-30T12:03:56;16.80;;;13.10;;
1799;SDS011;919;48.274;12.292;2024-01-30T12:06:23;14.70;;;11.67;;
1799;SDS011;919;48.274;12.292;2024-01-30T12:08:56;15.43;;;11.53;;
1799;SDS011;919;48.274;12.292;2024-01-30T12:11:24;13.60;;;11.13;;
1799;SDS011;919;48.274;12.292;2024-01-30T12:13:51;14.53;;;12.27;;
1799;SDS011;919;48.274;12.292;2024-01-30T12:16:19;17.10;;;13.20;;
1799;SDS011;919;48.274;12.292;2024-01-30T12:18:47;16.93;;;12.20;;
1799;SDS011;919;48.274;12.292;2024-01-30T12:21:16;15.70;;;11.50;;
1799;SDS011;919;48.274;12.292;2024-01-30T12:23:43;15.70;;;11.87;;
1799;SDS011;919;48.274;12.292;2024-01-30T12:26:10;13.43;;;11.30;;
1799;SDS011;919;48.274;12.292;2024-01-30T12:28:46;12.83;;;11.10;;
1799;SDS011;919;48.274;12.292;2024-01-30T12:31:14;13.40;;;10.27;;
1799;SDS011;919;48.274;12.292;2024-01-30T12:33:40;13.40;;;11.93;;
1799;SDS011;919;48.274;12.292;2024-01-30T12:36:08;16.37;;;11.57;;
1799;SDS011;919;48.274;12.292;2024-01-30T12:38:36;13.00;;;11.63;;
1799;SDS011;919;48.274;12.292;2024-01-30T12:41:02;13.97;;;11.27;;
1799;SDS011;919;48.274;12.292;2024-01-30T12:43:29;12.10;;;10.53;;
1799;SDS011;919;48.274;12.292;2024-01-30T12:45:56;12.27;;;10.80;;
1799;SDS011;919;48.274;12.292;2024-01-30T12:48:23;16.00;;;12.30;;
1799;SDS011;919;48.274;12.292;2024-01-30T12:50:50;13.60;;;11.10;;
1799;SDS011;919;48.274;12.292;2024-01-30T12:53:18;17.43;;;10.90;;
1799;SDS011;919;48.274;12.292;2024-01-30T12:55:45;14.13;;;11.80;;
1799;SDS011;919;48.274;12.292;2024-01-30T12:58:12;14.83;;;11.90;;
1799;SDS011;919;48.274;12.292;2024-01-30T13:00:38;14.97;;;11.10;;
1799;SDS011;919;48.274;12.292;2024-01-30T13:03:05;12.43;;;10.70;;
1799;SDS011;919;48.274;12.292;2024-01-30T13:05:33;12.87;;;11.50;;
1799;SDS011;919;48.274;12.292;2024-01-30T13:08:00;14.83;;;11.47;;
1799;SDS011;919;48.274;12.292;2024-01-30T13:10:28;12.40;;;10.93;;
1799;SDS011;919;48.274;12.292;2024-01-30T13:12:55;13.47;;;10.60;;
1799;SDS011;919;48.274;12.292;2024-01-30T13:15:21;15.23;;;11.37;;
1799;SDS011;919;48.274;12.292;2024-01-30T13:17:48;13.73;;;10.53;;
1799;SDS011;919;48.274;12.292;2024-01-30T13:20:15;13.60;;;10.47;;
1799;SDS011;919;48.274;12.292;2024-01-30T13:22:45;10.73;;;9.60;;
1799;SDS011;919;48.274;12.292;2024-01-30T13:25:13;15.07;;;11.30;;
1799;SDS011;919;48.274;12.292;2024-01-30T13:27:41;12.80;;;10.77;;
1799;SDS011;919;48.274;12.292;2024-01-30T13:30:08;11.50;;;9.57;;
1799;SDS011;919;48.274;12.292;2024-01-30T13:32:35;14.10;;;10.47;;
1799;SDS011;919;48.274;12.292;2024-01-30T13:35:02;11.70;;;10.33;;
1799;SDS011;919;48.274;12.292;2024-01-30T13:37:29;11.73;;;9.60;;
1799;SDS011;919;48.274;12.292;2024-01-30T13:39:56;11.43;;;9.97;;
1799;SDS011;919;48.274;12.292;2024-01-30T13:42:23;11.33;;;10.07;;
1799;SDS011;919;48.274;12.292;2024-01-30T13:44:51;15.47;;;10.27;;
1799;SDS011;919;48.274;12.292;2024-01-30T13:47:18;13.53;;;10.37;;
1799;SDS011;919;48.274;12.292;2024-01-30T13:49:46;11.30;;;9.57;;
1799;SDS011;919;48.274;12.292;2024-01-30T13:52:13;15.23;;;10.93;;
1799;SDS011;919;48.274;12.292;2024-01-30T13:54:39;13.90;;;11.00;;
1799;SDS011;919;48.274;12.292;2024-01-30T13:57:06;11.97;;;10.17;;
1799;SDS011;919;48.274;12.292;2024-01-30T13:59:33;15.70;;;10.60;;
1799;SDS011;919;48.274;12.292;2024-01-30T14:02:02;11.53;;;10.03;;
1799;SDS011;919;48.274;12.292;2024-01-30T14:04:28;10.67;;;9.57;;
1799;SDS011;919;48.274;12.292;2024-01-30T14:06:55;11.30;;;9.70;;
1799;SDS011;919;48.274;12.292;2024-01-30T14:09:22;12.13;;;10.20;;
1799;SDS011;919;48.274;12.292;2024-01-30T14:11:49;11.20;;;9.97;;
1799;SDS011;919;48.274;12.292;2024-01-30T14:14:15;11.87;;;10.67;;
1799;SDS011;919;48.274;12.292;2024-01-30T14:16:42;11.87;;;10.60;;
1799;SDS011;919;48.274;12.292;2024-01-30T14:19:10;11.53;;;9.60;;
1799;SDS011;919;48.274;12.292;2024-01-30T14:21:37;12.73;;;10.07;;
1799;SDS011;919;48.274;12.292;2024-01-30T14:24:04;13.60;;;10.73;;
1799;SDS011;919;48.274;12.292;2024-01-30T14:26:31;13.47;;;10.17;;
1799;SDS011;919;48.274;12.292;2024-01-30T14:28:58;12.97;;;10.73;;
1799;SDS011;919;48.274;12.292;2024-01-30T14:31:24;14.80;;;11.43;;
1799;SDS011;919;48.274;12.292;2024-01-30T14:33:52;13.57;;;12.10;;
1799;SDS011;919;48.274;12.292;2024-01-30T14:36:21;12.33;;;10.47;;
1799;SDS011;919;48.274;12.292;2024-01-30T14:38:52;11.23;;;10.00;;
1799;SDS011;919;48.274;12.292;2024-01-30T14:41:20;13.00;;;9.90;;
1799;SDS011;919;48.274;12.292;2024-01-30T14:43:47;12.13;;;10.90;;
1799;SDS011;919;48.274;12.292;2024-01-30T14:46:14;13.67;;;10.37;;
1799;SDS011;919;48.274;12.292;2024-01-30T14:48:41;11.00;;;9.90;;
1799;SDS011;919;48.274;12.292;2024-01-30T14:51:08;15.00;;;11.10;;
1799;SDS011;919;48.274;12.292;2024-01-30T14:53:36;12.90;;;9.80;;
1799;SDS011;919;48.274;12.292;2024-01-30T14:56:03;12.33;;;10.73;;
1799;SDS011;919;48.274;12.292;2024-01-30T14:58:31;11.30;;;9.37;;